createdAt,value
2022-12-07T00:00:02.738Z,5.87
2022-12-07T00:15:02.567Z,5.86
2022-12-07T00:30:02.622Z,5.66
2022-12-07T00:45:02.491Z,5.62
2022-12-07T01:00:02.436Z,5.51
2022-12-07T01:15:02.257Z,5.62
2022-12-07T01:30:02.274Z,5.34
2022-12-07T01:45:02.116Z,5.33
2022-12-07T02:00:02.096Z,5.3
2022-12-07T02:15:01.966Z,5.19
2022-12-07T02:30:02.272Z,4.99
2022-12-07T02:45:02.318Z,4.84
2022-12-07T03:00:02.493Z,4.64
2022-12-07T03:15:02.400Z,4.47
2022-12-07T03:30:02.483Z,4.38
2022-12-07T03:45:02.402Z,4.24
2022-12-07T04:00:02.427Z,4.28
2022-12-07T04:15:02.330Z,4.23
2022-12-07T04:30:02.244Z,4.01
2022-12-07T04:45:02.069Z,4.06
2022-12-07T05:00:02.130Z,4.07
2022-12-07T05:15:02.158Z,3.9
2022-12-07T05:30:02.641Z,3.83
2022-12-07T05:45:02.524Z,3.77
2022-12-07T06:00:02.700Z,3.83
2022-12-07T06:15:01.661Z,3.81
2022-12-07T06:30:02.594Z,3.68
2022-12-07T06:45:02.528Z,3.66
2022-12-07T07:00:02.503Z,3.62
2022-12-07T07:15:02.508Z,3.57
2022-12-07T07:30:02.536Z,3.53
2022-12-07T07:45:02.392Z,3.54
2022-12-07T08:00:02.321Z,3.51
2022-12-07T08:15:02.076Z,3.57
2022-12-07T08:30:02.159Z,3.61
2022-12-07T08:45:02.015Z,3.72
2022-12-07T09:00:02.047Z,3.71
2022-12-07T09:15:01.897Z,3.82
2022-12-07T09:30:01.936Z,3.85
2022-12-07T09:45:01.793Z,3.92
2022-12-07T10:00:02.513Z,4.09
2022-12-07T10:15:08.829Z,4.34
2022-12-07T10:30:01.841Z,4.39
2022-12-07T10:45:03.042Z,4.38
2022-12-07T11:00:02.022Z,4.71
2022-12-07T11:15:01.745Z,4.98
2022-12-07T11:30:02.660Z,5.07
2022-12-07T11:45:02.590Z,5.44
2022-12-07T12:00:02.636Z,5.37
2022-12-07T12:15:02.741Z,5.78
2022-12-07T12:30:01.605Z,5.63
2022-12-07T12:45:02.529Z,5.86
2022-12-07T13:00:02.419Z,5.79
2022-12-07T13:15:02.378Z,6.18
2022-12-07T13:30:02.615Z,6.04
2022-12-07T13:45:02.858Z,5.99
2022-12-07T14:00:01.780Z,6.02
2022-12-07T14:15:03.128Z,6.01
2022-12-07T14:30:02.016Z,5.96
2022-12-07T14:45:01.972Z,5.95
2022-12-07T15:00:01.839Z,5.73
2022-12-07T15:15:02.776Z,5.36
2022-12-07T15:30:01.609Z,5.23
2022-12-07T15:45:02.560Z,5.02
2022-12-07T16:00:02.367Z,4.89
2022-12-07T16:15:02.475Z,4.68
2022-12-07T16:30:02.371Z,4.7
2022-12-07T16:45:02.246Z,4.6
2022-12-07T17:00:02.126Z,4.56
2022-12-07T17:15:02.053Z,4.48
2022-12-07T17:30:02.225Z,4.43
2022-12-07T17:45:02.265Z,4.35
2022-12-07T18:00:02.256Z,4.31
2022-12-07T18:15:02.335Z,4.26
2022-12-07T18:30:02.204Z,4.21
2022-12-07T18:45:02.214Z,4.16
2022-12-07T19:00:02.070Z,4.12
2022-12-07T19:15:02.055Z,4.05
2022-12-07T19:30:02.018Z,4.01
2022-12-07T19:45:02.119Z,4.03
2022-12-07T20:00:01.980Z,4.03
2022-12-07T20:15:01.997Z,4.03
2022-12-07T20:30:01.953Z,4.06
2022-12-07T20:45:03.651Z,4.02
2022-12-07T21:00:01.696Z,3.99
2022-12-07T21:15:02.630Z,3.93
2022-12-07T21:30:02.532Z,3.98
2022-12-07T21:45:02.551Z,3.91
2022-12-07T22:00:02.423Z,3.9
2022-12-07T22:15:02.535Z,3.85
2022-12-07T22:30:01.607Z,3.82
2022-12-07T22:45:02.775Z,3.79
2022-12-07T23:00:01.855Z,3.77
2022-12-07T23:15:02.761Z,3.77
2022-12-07T23:30:01.629Z,3.71
2022-12-07T23:45:02.540Z,3.66
